createdAt,value
2023-05-20T00:00:59.907Z,27.71
2023-05-20T00:01:59.904Z,27.68
2023-05-20T00:02:59.928Z,27.71
2023-05-20T00:03:59.935Z,27.70
2023-05-20T00:04:59.950Z,27.68
2023-05-20T00:05:59.892Z,27.68
2023-05-20T00:06:59.911Z,27.68
2023-05-20T00:07:59.878Z,27.65
2023-05-20T00:08:59.878Z,27.68
2023-05-20T00:09:59.890Z,27.70
2023-05-20T00:10:59.885Z,27.70
2023-05-20T00:11:59.850Z,27.65
2023-05-20T00:12:59.886Z,27.67
2023-05-20T00:13:59.898Z,27.67
2023-05-20T00:14:59.878Z,27.67
2023-05-20T00:15:59.984Z,27.64
2023-05-20T00:17:00.057Z,27.67
2023-05-20T00:17:59.895Z,27.68
2023-05-20T00:18:59.916Z,27.68
2023-05-20T00:19:59.846Z,27.67
2023-05-20T00:20:59.865Z,27.67
2023-05-20T00:21:59.903Z,27.64
2023-05-20T00:22:59.876Z,27.65
2023-05-20T00:23:59.846Z,27.65
2023-05-20T00:24:59.906Z,27.67
2023-05-20T00:26:00.841Z,27.64
2023-05-20T00:26:59.879Z,27.64
2023-05-20T00:27:59.868Z,27.65
2023-05-20T00:28:59.875Z,27.62
2023-05-20T00:29:59.852Z,27.61
2023-05-20T00:30:59.860Z,27.64
2023-05-20T00:31:59.903Z,27.67
2023-05-20T00:32:59.895Z,27.62
2023-05-20T00:33:59.871Z,27.61
2023-05-20T00:34:59.840Z,27.62
2023-05-20T00:35:59.861Z,27.62
2023-05-20T00:36:59.892Z,27.62
2023-05-20T00:37:59.883Z,27.64
2023-05-20T00:38:59.878Z,27.61
2023-05-20T00:39:59.875Z,27.64
2023-05-20T00:40:59.881Z,27.64
2023-05-20T00:41:59.897Z,27.60
2023-05-20T00:42:59.875Z,27.62
2023-05-20T00:43:59.859Z,27.61
2023-05-20T00:44:59.889Z,27.61
2023-05-20T00:45:59.913Z,27.62
2023-05-20T00:46:59.906Z,27.62
2023-05-20T00:47:59.966Z,27.61
2023-05-20T00:48:59.909Z,27.60
2023-05-20T00:49:59.928Z,27.61
2023-05-20T00:50:59.883Z,27.61
2023-05-20T00:51:59.981Z,27.62
2023-05-20T00:52:59.943Z,27.58
2023-05-20T00:53:59.923Z,27.61
2023-05-20T00:55:00.000Z,27.60
2023-05-20T00:55:59.956Z,27.60
2023-05-20T00:56:59.960Z,27.60
2023-05-20T00:57:59.962Z,27.60
2023-05-20T00:58:59.987Z,27.61
2023-05-20T00:59:59.967Z,27.60
2023-05-20T01:01:00.077Z,27.58
2023-05-20T01:01:59.988Z,27.60
2023-05-20T01:03:00.049Z,27.57
2023-05-20T01:04:00.096Z,27.58
2023-05-20T01:05:00.042Z,27.58
2023-05-20T01:06:00.063Z,27.58
2023-05-20T01:07:00.046Z,27.58
2023-05-20T01:08:00.122Z,27.58
2023-05-20T01:09:00.063Z,27.58
2023-05-20T01:10:00.042Z,27.58
2023-05-20T01:11:00.117Z,27.57
2023-05-20T01:12:00.130Z,27.57
2023-05-20T01:13:00.100Z,27.54
2023-05-20T01:14:00.131Z,27.56
2023-05-20T01:15:00.151Z,27.56
2023-05-20T01:16:00.244Z,27.57
2023-05-20T01:17:00.146Z,27.56
2023-05-20T01:18:00.213Z,27.56
2023-05-20T01:19:00.182Z,27.57
2023-05-20T01:20:00.247Z,27.56
2023-05-20T01:21:00.181Z,27.54
2023-05-20T01:22:00.200Z,27.54
2023-05-20T01:23:00.200Z,27.54
2023-05-20T01:24:00.169Z,27.56
2023-05-20T01:25:00.201Z,27.53
2023-05-20T01:26:00.186Z,27.53
2023-05-20T01:27:00.221Z,27.56
2023-05-20T01:28:00.240Z,27.53
2023-05-20T01:29:00.214Z,27.56
2023-05-20T01:30:00.354Z,27.53
2023-05-20T01:31:00.342Z,27.53
2023-05-20T01:32:00.292Z,27.53
2023-05-20T01:33:00.347Z,27.53
2023-05-20T01:34:00.300Z,27.57
2023-05-20T01:35:00.318Z,27.56
2023-05-20T01:36:00.332Z,27.53
2023-05-20T01:37:00.344Z,27.54
2023-05-20T01:38:00.317Z,27.56
2023-05-20T01:39:00.356Z,27.53
2023-05-20T01:40:00.366Z,27.53
2023-05-20T01:41:00.389Z,27.54
2023-05-20T01:42:00.359Z,27.51
2023-05-20T01:43:00.397Z,27.54
2023-05-20T01:44:00.460Z,27.53
2023-05-20T01:45:00.432Z,27.51
2023-05-20T01:46:00.443Z,27.51
2023-05-20T01:47:00.491Z,27.53
2023-05-20T01:48:00.493Z,27.50
2023-05-20T01:49:00.488Z,27.50
2023-05-20T01:50:00.505Z,27.49
2023-05-20T01:51:00.512Z,27.53
2023-05-20T01:52:00.536Z,27.50
2023-05-20T01:53:00.638Z,27.50
2023-05-20T01:54:00.550Z,27.51
2023-05-20T01:55:00.627Z,27.53
2023-05-20T01:56:00.643Z,27.51
2023-05-20T01:57:00.640Z,27.49
2023-05-20T01:58:00.654Z,27.50
2023-05-20T01:59:00.688Z,27.50
2023-05-20T02:00:00.690Z,27.50
2023-05-20T02:01:00.747Z,27.49
2023-05-20T02:02:00.826Z,27.49
2023-05-20T02:03:00.783Z,27.51
2023-05-20T02:04:00.758Z,27.51
2023-05-20T02:05:00.827Z,27.51
2023-05-20T02:06:00.831Z,27.51
2023-05-20T02:07:00.829Z,27.50
2023-05-20T02:08:00.870Z,27.50
2023-05-20T02:09:00.858Z,27.49
2023-05-20T02:10:00.946Z,27.49
2023-05-20T02:11:00.922Z,27.49
2023-05-20T02:12:00.956Z,27.47
2023-05-20T02:13:00.956Z,27.49
2023-05-20T02:14:01.000Z,27.47
2023-05-20T02:15:01.073Z,27.50
2023-05-20T02:16:01.017Z,27.49
2023-05-20T02:17:00.984Z,27.50
2023-05-20T02:18:01.107Z,27.47
2023-05-20T02:19:01.107Z,27.47
2023-05-20T02:20:01.110Z,27.44
2023-05-20T02:21:01.110Z,27.46
2023-05-20T02:22:01.117Z,27.47
2023-05-20T02:23:01.189Z,27.46
2023-05-20T02:24:01.199Z,27.47
2023-05-20T02:25:01.206Z,27.46
2023-05-20T02:26:01.218Z,27.46
2023-05-20T02:27:01.285Z,27.49
2023-05-20T02:28:01.323Z,27.46
2023-05-20T02:29:01.312Z,27.47
2023-05-20T02:30:01.413Z,27.49
2023-05-20T02:31:01.341Z,27.47
2023-05-20T02:32:01.394Z,27.44
2023-05-20T02:33:01.446Z,27.46
2023-05-20T02:34:01.490Z,27.47
2023-05-20T02:35:01.469Z,27.44
2023-05-20T02:36:01.499Z,27.44
2023-05-20T02:37:01.531Z,27.44
2023-05-20T02:38:01.597Z,27.47
2023-05-20T02:39:01.583Z,27.44
2023-05-20T02:40:01.707Z,27.46
2023-05-20T02:41:01.659Z,27.44
2023-05-20T02:42:01.672Z,27.44
2023-05-20T02:43:01.708Z,27.43
2023-05-20T02:44:01.714Z,27.46
2023-05-20T02:45:01.780Z,27.44
2023-05-20T02:46:01.843Z,27.44
2023-05-20T02:47:01.806Z,27.44
2023-05-20T02:48:01.858Z,27.43
2023-05-20T02:49:01.852Z,27.46
2023-05-20T02:50:01.879Z,27.43
2023-05-20T02:51:01.881Z,27.43
2023-05-20T02:52:01.938Z,27.43
2023-05-20T02:53:01.966Z,27.41
2023-05-20T02:54:02.011Z,27.41
2023-05-20T02:55:02.054Z,27.41
2023-05-20T02:56:02.081Z,27.43
2023-05-20T02:57:02.074Z,27.43
2023-05-20T02:58:02.153Z,27.43
2023-05-20T02:59:02.158Z,27.41
2023-05-20T03:00:02.150Z,27.41
2023-05-20T03:01:02.230Z,27.41
2023-05-20T03:02:02.262Z,27.44
2023-05-20T03:03:02.316Z,27.43
2023-05-20T03:04:02.306Z,27.41
2023-05-20T03:05:02.280Z,27.40
2023-05-20T03:06:02.355Z,27.40
2023-05-20T03:07:02.382Z,27.40
2023-05-20T03:08:02.397Z,27.40
2023-05-20T03:09:02.464Z,27.41
2023-05-20T03:10:02.476Z,27.40
2023-05-20T03:11:03.390Z,27.40
2023-05-20T03:12:02.521Z,27.43
2023-05-20T03:13:02.516Z,27.40
2023-05-20T03:14:02.566Z,27.37
2023-05-20T03:15:02.565Z,27.40
2023-05-20T03:16:02.664Z,27.40
2023-05-20T03:17:02.633Z,27.41
2023-05-20T03:18:02.764Z,27.40
2023-05-20T03:19:02.745Z,27.40
2023-05-20T03:20:02.747Z,27.39
2023-05-20T03:21:02.765Z,27.41
2023-05-20T03:22:02.793Z,27.41
2023-05-20T03:23:02.831Z,27.37
2023-05-20T03:24:02.876Z,27.39
2023-05-20T03:25:02.890Z,27.39
2023-05-20T03:26:02.908Z,27.39
2023-05-20T03:27:03.021Z,27.41
2023-05-20T03:28:03.010Z,27.40
2023-05-20T03:29:03.048Z,27.37
2023-05-20T03:30:03.088Z,27.39
2023-05-20T03:31:03.201Z,27.39
2023-05-20T03:32:03.133Z,27.39
2023-05-20T03:33:03.395Z,27.37
2023-05-20T03:34:03.242Z,27.36
2023-05-20T03:35:03.283Z,27.36
2023-05-20T03:36:03.300Z,27.37
2023-05-20T03:37:03.306Z,27.37
2023-05-20T03:38:03.316Z,27.40
2023-05-20T03:39:03.360Z,27.40
2023-05-20T03:40:03.396Z,27.39
2023-05-20T03:41:03.425Z,27.36
2023-05-20T03:42:03.447Z,27.37
2023-05-20T03:43:03.476Z,27.37
2023-05-20T03:44:03.516Z,27.37
2023-05-20T03:45:03.588Z,27.39
2023-05-20T03:46:03.609Z,27.39
2023-05-20T03:47:03.753Z,27.36
2023-05-20T03:48:03.807Z,27.36
2023-05-20T03:49:03.704Z,27.34
2023-05-20T03:50:03.773Z,27.37
2023-05-20T03:51:03.769Z,27.34
2023-05-20T03:52:04.746Z,27.37
2023-05-20T03:53:03.852Z,27.36
2023-05-20T03:54:03.896Z,27.37
2023-05-20T03:55:03.897Z,27.36
2023-05-20T03:56:03.926Z,27.39
2023-05-20T03:57:03.982Z,27.37
2023-05-20T03:58:04.017Z,27.37
2023-05-20T03:59:04.080Z,27.37
2023-05-20T04:00:04.143Z,27.37
2023-05-20T04:01:04.147Z,27.37
2023-05-20T04:02:04.236Z,27.36
2023-05-20T04:03:04.373Z,27.37
2023-05-20T04:04:04.252Z,27.37
2023-05-20T04:05:04.290Z,27.37
2023-05-20T04:06:04.325Z,27.36
2023-05-20T04:07:04.344Z,27.34
2023-05-20T04:08:04.414Z,27.37
2023-05-20T04:09:04.413Z,27.34
2023-05-20T04:10:04.471Z,27.36
2023-05-20T04:11:04.458Z,27.34
2023-05-20T04:12:04.546Z,27.36
2023-05-20T04:13:04.558Z,27.36
2023-05-20T04:14:04.565Z,27.39
2023-05-20T04:15:04.662Z,27.36
2023-05-20T04:16:04.766Z,27.37
2023-05-20T04:17:04.803Z,27.37
2023-05-20T04:18:04.790Z,27.37
2023-05-20T04:19:04.805Z,27.36
2023-05-20T04:20:04.796Z,27.36
2023-05-20T04:21:04.869Z,27.34
2023-05-20T04:22:04.827Z,27.37
2023-05-20T04:23:04.863Z,27.39
2023-05-20T04:24:04.943Z,27.39
2023-05-20T04:25:04.940Z,27.37
2023-05-20T04:26:04.980Z,27.34
2023-05-20T04:27:05.045Z,27.37
2023-05-20T04:28:05.048Z,27.37
2023-05-20T04:29:05.052Z,27.36
2023-05-20T04:30:05.120Z,27.37
2023-05-20T04:31:05.139Z,27.34
2023-05-20T04:32:05.217Z,27.40
2023-05-20T04:33:05.249Z,27.37
2023-05-20T04:34:05.262Z,27.37
2023-05-20T04:35:05.273Z,27.37
2023-05-20T04:36:05.305Z,27.37
2023-05-20T04:37:05.382Z,27.37
2023-05-20T04:38:05.400Z,27.36
2023-05-20T04:39:05.431Z,27.39
2023-05-20T04:40:05.424Z,27.39
2023-05-20T04:41:05.486Z,27.36
2023-05-20T04:42:05.553Z,27.36
2023-05-20T04:43:05.560Z,27.36
2023-05-20T04:44:05.596Z,27.36
2023-05-20T04:45:05.609Z,27.37
2023-05-20T04:46:05.728Z,27.39
2023-05-20T04:47:05.664Z,27.39
2023-05-20T04:48:05.773Z,27.37
2023-05-20T04:49:05.737Z,27.40
2023-05-20T04:50:05.768Z,27.39
2023-05-20T04:51:05.816Z,27.40
2023-05-20T04:52:05.878Z,27.40
2023-05-20T04:53:05.880Z,27.37
2023-05-20T04:54:05.877Z,27.37
2023-05-20T04:55:05.915Z,27.37
2023-05-20T04:56:05.952Z,27.40
2023-05-20T04:57:06.022Z,27.37
2023-05-20T04:58:06.016Z,27.37
2023-05-20T04:59:06.037Z,27.36
2023-05-20T05:00:06.089Z,27.37
2023-05-20T05:01:06.183Z,27.40
2023-05-20T05:02:06.151Z,27.39
2023-05-20T05:03:06.247Z,27.39
2023-05-20T05:04:06.197Z,27.41
2023-05-20T05:05:06.394Z,27.40
2023-05-20T05:06:06.302Z,27.41
2023-05-20T05:07:06.300Z,27.40
2023-05-20T05:08:06.336Z,27.39
2023-05-20T05:09:06.355Z,27.41
2023-05-20T05:10:06.378Z,27.41
2023-05-20T05:11:06.412Z,27.40
2023-05-20T05:12:06.413Z,27.40
2023-05-20T05:13:06.483Z,27.40
2023-05-20T05:14:06.490Z,27.40
2023-05-20T05:15:06.548Z,27.40
2023-05-20T05:16:06.584Z,27.41
2023-05-20T05:17:06.569Z,27.41
2023-05-20T05:18:06.691Z,27.41
2023-05-20T05:19:06.743Z,27.41
2023-05-20T05:20:06.681Z,27.43
2023-05-20T05:21:06.727Z,27.41
2023-05-20T05:22:06.761Z,27.44
2023-05-20T05:23:06.794Z,27.44
2023-05-20T05:24:06.819Z,27.44
2023-05-20T05:25:06.834Z,27.43
2023-05-20T05:26:06.840Z,27.41
2023-05-20T05:27:06.946Z,27.46
2023-05-20T05:28:06.969Z,27.41
2023-05-20T05:29:06.936Z,27.44
2023-05-20T05:30:06.995Z,27.44
2023-05-20T05:31:07.020Z,27.46
2023-05-20T05:32:07.059Z,27.46
2023-05-20T05:33:07.223Z,27.44
2023-05-20T05:34:07.073Z,27.41
2023-05-20T05:35:08.279Z,27.43
2023-05-20T05:36:07.159Z,27.44
2023-05-20T05:37:07.176Z,27.43
2023-05-20T05:38:07.212Z,27.47
2023-05-20T05:39:07.216Z,27.46
2023-05-20T05:40:07.258Z,27.46
2023-05-20T05:41:07.289Z,27.46
2023-05-20T05:42:07.330Z,27.46
2023-05-20T05:43:07.369Z,27.47
2023-05-20T05:44:07.362Z,27.46
2023-05-20T05:45:07.396Z,27.46
2023-05-20T05:46:07.420Z,27.46
2023-05-20T05:47:07.595Z,27.47
2023-05-20T05:48:07.535Z,27.47
2023-05-20T05:49:07.494Z,27.46
2023-05-20T05:50:07.533Z,27.47
2023-05-20T05:51:07.529Z,27.46
2023-05-20T05:52:07.565Z,27.46
2023-05-20T05:53:07.621Z,27.49
2023-05-20T05:54:07.670Z,27.47
2023-05-20T05:55:07.638Z,27.46
2023-05-20T05:56:07.640Z,27.46
2023-05-20T05:57:07.688Z,27.46
2023-05-20T05:58:07.717Z,27.47
2023-05-20T05:59:07.721Z,27.47
2023-05-20T06:00:07.746Z,27.46
2023-05-20T06:02:07.834Z,27.46
2023-05-20T06:03:07.985Z,27.46
2023-05-20T06:04:08.010Z,27.46
2023-05-20T06:05:07.912Z,27.46
2023-05-20T06:06:07.933Z,27.46
2023-05-20T06:07:07.939Z,27.46
2023-05-20T06:08:07.988Z,27.46
2023-05-20T06:09:08.016Z,27.47
2023-05-20T06:10:08.057Z,27.44
2023-05-20T06:11:08.103Z,27.46
2023-05-20T06:12:08.083Z,27.49
2023-05-20T06:13:08.115Z,27.47
2023-05-20T06:14:08.125Z,27.49
2023-05-20T06:15:08.175Z,27.47
2023-05-20T06:16:08.352Z,27.47
2023-05-20T06:17:08.312Z,27.49
2023-05-20T06:18:08.273Z,27.49
2023-05-20T06:19:08.277Z,27.51
2023-05-20T06:20:08.349Z,27.47
2023-05-20T06:21:08.327Z,27.49
2023-05-20T06:22:08.393Z,27.49
2023-05-20T06:23:08.372Z,27.49
2023-05-20T06:24:08.402Z,27.49
2023-05-20T06:25:08.440Z,27.50
2023-05-20T06:26:08.437Z,27.50
2023-05-20T06:27:08.451Z,27.49
2023-05-20T06:28:08.514Z,27.47
2023-05-20T06:29:08.551Z,27.50
2023-05-20T06:30:08.549Z,27.47
2023-05-20T06:31:08.635Z,27.49
2023-05-20T06:32:08.587Z,27.51
2023-05-20T06:33:08.664Z,27.50
2023-05-20T06:34:08.696Z,27.50
2023-05-20T06:35:08.709Z,27.51
2023-05-20T06:36:08.725Z,27.51
2023-05-20T06:37:08.734Z,27.50
2023-05-20T06:38:08.869Z,27.53
2023-05-20T06:39:08.800Z,27.50
2023-05-20T06:40:08.825Z,27.51
2023-05-20T06:41:08.876Z,27.49
2023-05-20T06:42:08.852Z,27.51
2023-05-20T06:43:08.894Z,27.54
2023-05-20T06:44:08.941Z,27.51
2023-05-20T06:45:08.916Z,27.53
2023-05-20T06:46:08.962Z,27.51
2023-05-20T06:47:09.008Z,27.54
2023-05-20T06:48:09.046Z,27.54
2023-05-20T06:49:09.077Z,27.54
2023-05-20T06:50:09.059Z,27.56
2023-05-20T06:51:09.066Z,27.57
2023-05-20T06:52:09.111Z,27.58
2023-05-20T06:53:09.160Z,27.58
2023-05-20T06:54:09.185Z,27.56
2023-05-20T06:55:09.275Z,27.56
2023-05-20T06:56:09.243Z,27.60
2023-05-20T06:57:09.244Z,27.60
2023-05-20T06:58:09.249Z,27.58
2023-05-20T06:59:09.276Z,27.61
2023-05-20T07:00:09.253Z,27.58
2023-05-20T07:01:09.351Z,27.60
2023-05-20T07:02:09.326Z,27.61
2023-05-20T07:03:09.363Z,27.61
2023-05-20T07:04:09.375Z,27.62
2023-05-20T07:05:09.363Z,27.61
2023-05-20T07:06:09.361Z,27.62
2023-05-20T07:07:09.374Z,27.64
2023-05-20T07:08:09.419Z,27.62
2023-05-20T07:09:09.420Z,27.65
2023-05-20T07:10:09.414Z,27.67
2023-05-20T07:11:09.487Z,27.65
2023-05-20T07:12:09.466Z,27.64
2023-05-20T07:13:09.480Z,27.64
2023-05-20T07:14:09.502Z,27.64
2023-05-20T07:15:09.507Z,27.65
2023-05-20T07:16:09.561Z,27.67
2023-05-20T07:17:09.529Z,27.65
2023-05-20T07:18:09.663Z,27.67
2023-05-20T07:19:09.675Z,27.65
2023-05-20T07:20:09.563Z,27.67
2023-05-20T07:21:09.566Z,27.68
2023-05-20T07:22:09.579Z,27.68
2023-05-20T07:23:09.626Z,27.67
2023-05-20T07:24:09.583Z,27.68
2023-05-20T07:25:09.636Z,27.67
2023-05-20T07:26:09.634Z,27.71
2023-05-20T07:27:09.644Z,27.70
2023-05-20T07:28:09.667Z,27.71
2023-05-20T07:29:09.679Z,27.71
2023-05-20T07:30:09.680Z,27.71
2023-05-20T07:31:09.693Z,27.72
2023-05-20T07:32:09.749Z,27.72
2023-05-20T07:33:09.711Z,27.75
2023-05-20T07:34:09.714Z,27.72
2023-05-20T07:35:09.716Z,27.77
2023-05-20T07:36:11.285Z,27.75
2023-05-20T07:37:09.714Z,27.75
2023-05-20T07:38:09.730Z,27.77
2023-05-20T07:39:14.229Z,27.75
2023-05-20T07:40:10.757Z,27.74
2023-05-20T07:41:09.680Z,27.77
2023-05-20T07:42:09.702Z,27.74
2023-05-20T07:43:09.674Z,27.80
2023-05-20T07:44:09.677Z,27.77
2023-05-20T07:45:09.661Z,27.75
2023-05-20T07:46:09.726Z,27.78
2023-05-20T07:47:09.681Z,27.74
2023-05-20T07:48:09.702Z,27.75
2023-05-20T07:49:09.662Z,27.77
2023-05-20T07:50:09.638Z,27.75
2023-05-20T07:51:09.658Z,27.80
2023-05-20T07:52:09.660Z,27.78
2023-05-20T07:53:09.625Z,27.77
2023-05-20T07:54:09.667Z,27.80
2023-05-20T07:55:09.630Z,27.80
2023-05-20T07:56:09.577Z,27.78
2023-05-20T07:57:09.609Z,27.80
2023-05-20T07:58:09.574Z,27.78
2023-05-20T07:59:09.597Z,27.78
2023-05-20T08:00:09.614Z,27.80
2023-05-20T08:01:09.576Z,27.80
2023-05-20T08:02:09.647Z,27.83
2023-05-20T08:03:09.762Z,27.83
2023-05-20T08:04:09.703Z,27.83
2023-05-20T08:05:09.531Z,27.81
2023-05-20T08:06:09.557Z,27.84
2023-05-20T08:07:09.534Z,27.83
2023-05-20T08:08:09.516Z,27.85
2023-05-20T08:09:09.542Z,27.84
2023-05-20T08:10:09.527Z,27.85
2023-05-20T08:11:09.511Z,27.85
2023-05-20T08:12:09.504Z,27.87
2023-05-20T08:13:09.508Z,27.85
2023-05-20T08:14:09.483Z,27.87
2023-05-20T08:15:09.463Z,27.88
2023-05-20T08:16:09.473Z,27.88
2023-05-20T08:17:09.564Z,27.91
2023-05-20T08:18:09.534Z,27.89
2023-05-20T08:19:09.494Z,27.91
2023-05-20T08:20:09.446Z,27.91
2023-05-20T08:21:09.428Z,27.89
2023-05-20T08:22:09.452Z,27.91
2023-05-20T08:23:09.427Z,27.94
2023-05-20T08:24:09.423Z,27.94
2023-05-20T08:25:09.396Z,27.91
2023-05-20T08:26:09.407Z,27.94
2023-05-20T08:27:09.411Z,27.91
2023-05-20T08:28:09.378Z,27.94
2023-05-20T08:29:09.390Z,27.89
2023-05-20T08:30:09.405Z,27.92
2023-05-20T08:31:09.441Z,27.92
2023-05-20T08:32:09.415Z,27.92
2023-05-20T08:33:09.518Z,27.95
2023-05-20T08:34:09.490Z,27.95
2023-05-20T08:35:09.516Z,27.97
2023-05-20T08:36:09.570Z,27.95
2023-05-20T08:37:09.620Z,27.97
2023-05-20T08:38:09.672Z,27.97
2023-05-20T08:39:09.648Z,28.01
2023-05-20T08:40:09.703Z,27.99
2023-05-20T08:41:09.785Z,27.98
2023-05-20T08:42:09.824Z,27.99
2023-05-20T08:43:09.896Z,28.01
2023-05-20T08:44:09.913Z,27.99
2023-05-20T08:45:09.977Z,27.99
2023-05-20T08:46:10.022Z,28.01
2023-05-20T08:47:10.057Z,27.99
2023-05-20T08:48:10.162Z,27.99
2023-05-20T08:49:10.142Z,28.01
2023-05-20T08:50:10.189Z,28.01
2023-05-20T08:51:10.219Z,28.02
2023-05-20T08:52:10.283Z,27.99
2023-05-20T08:53:10.342Z,27.99
2023-05-20T08:54:10.401Z,28.04
2023-05-20T08:55:10.499Z,27.99
2023-05-20T08:56:10.570Z,28.01
2023-05-20T08:57:10.604Z,28.02
2023-05-20T08:58:10.685Z,28.02
2023-05-20T08:59:10.705Z,28.02
2023-05-20T09:00:10.806Z,28.02
2023-05-20T09:01:10.855Z,28.02
2023-05-20T09:02:11.004Z,28.04
2023-05-20T09:03:10.988Z,28.04
2023-05-20T09:04:11.061Z,28.04
2023-05-20T09:05:11.211Z,28.05
2023-05-20T09:06:11.172Z,28.06
2023-05-20T09:07:11.231Z,28.04
2023-05-20T09:08:11.289Z,28.05
2023-05-20T09:09:11.385Z,28.05
2023-05-20T09:10:11.383Z,28.05
2023-05-20T09:11:11.468Z,28.08
2023-05-20T09:12:11.530Z,28.08
2023-05-20T09:13:11.634Z,28.08
2023-05-20T09:14:11.655Z,28.08
2023-05-20T09:15:11.703Z,28.08
2023-05-20T09:16:11.797Z,28.09
2023-05-20T09:17:11.803Z,28.11
2023-05-20T09:18:11.997Z,28.11
2023-05-20T09:19:12.023Z,28.09
2023-05-20T09:20:12.036Z,28.11
2023-05-20T09:21:12.064Z,28.11
2023-05-20T09:22:12.121Z,28.11
2023-05-20T09:23:12.180Z,28.13
2023-05-20T09:24:12.243Z,28.11
2023-05-20T09:25:12.278Z,28.13
2023-05-20T09:26:12.367Z,28.12
2023-05-20T09:27:12.428Z,28.16
2023-05-20T09:28:12.448Z,28.18
2023-05-20T09:29:12.518Z,28.16
2023-05-20T09:30:12.586Z,28.18
2023-05-20T09:31:12.660Z,28.19
2023-05-20T09:32:12.717Z,28.18
2023-05-20T09:33:12.775Z,28.19
2023-05-20T09:34:12.800Z,28.19
2023-05-20T09:35:12.866Z,28.19
2023-05-20T09:36:13.968Z,28.19
2023-05-20T09:37:12.906Z,28.18
2023-05-20T09:38:12.887Z,28.18
2023-05-20T09:39:12.902Z,28.18
2023-05-20T09:40:12.899Z,28.18
2023-05-20T09:41:12.881Z,28.19
2023-05-20T09:42:12.852Z,28.18
2023-05-20T09:43:12.862Z,28.19
2023-05-20T09:44:12.829Z,28.19
2023-05-20T09:45:12.833Z,28.20
2023-05-20T09:46:12.882Z,28.18
2023-05-20T09:47:12.872Z,28.20
2023-05-20T09:48:12.835Z,28.20
2023-05-20T09:49:12.817Z,28.20
2023-05-20T09:50:12.833Z,28.18
2023-05-20T09:51:12.806Z,28.19
2023-05-20T09:52:12.792Z,28.22
2023-05-20T09:53:12.785Z,28.22
2023-05-20T09:54:13.464Z,28.23
2023-05-20T09:55:12.755Z,28.23
2023-05-20T09:56:12.770Z,28.22
2023-05-20T09:57:12.767Z,28.25
2023-05-20T09:58:14.807Z,28.23
2023-05-20T09:59:12.756Z,28.25
2023-05-20T10:00:12.714Z,28.25
2023-05-20T10:01:12.731Z,28.25
2023-05-20T10:02:12.747Z,28.26
2023-05-20T10:03:12.807Z,28.23
2023-05-20T10:04:12.726Z,28.23
2023-05-20T10:05:12.704Z,28.25
2023-05-20T10:06:12.696Z,28.23
2023-05-20T10:07:12.697Z,28.25
2023-05-20T10:08:12.714Z,28.23
2023-05-20T10:09:12.709Z,28.25
2023-05-20T10:10:12.682Z,28.25
2023-05-20T10:11:12.721Z,28.27
2023-05-20T10:12:12.677Z,28.25
2023-05-20T10:13:12.629Z,28.25
2023-05-20T10:14:12.622Z,28.26
2023-05-20T10:15:12.616Z,28.27
2023-05-20T10:16:12.649Z,28.26
2023-05-20T10:17:12.644Z,28.27
2023-05-20T10:18:12.592Z,28.27
2023-05-20T10:19:12.617Z,28.26
2023-05-20T10:20:12.580Z,28.27
2023-05-20T10:21:12.583Z,28.27
2023-05-20T10:22:12.603Z,28.27
2023-05-20T10:23:12.580Z,28.27
2023-05-20T10:24:12.542Z,28.27
2023-05-20T10:25:12.542Z,28.27
2023-05-20T10:26:12.539Z,28.29
2023-05-20T10:27:12.519Z,28.32
2023-05-20T10:28:12.539Z,28.27
2023-05-20T10:29:12.523Z,28.30
2023-05-20T10:30:12.526Z,28.32
2023-05-20T10:31:12.495Z,28.29
2023-05-20T10:32:12.614Z,28.32
2023-05-20T10:33:12.607Z,28.30
2023-05-20T10:34:12.511Z,28.32
2023-05-20T10:35:12.500Z,28.33
2023-05-20T10:36:12.478Z,28.36
2023-05-20T10:37:12.477Z,28.36
2023-05-20T10:38:12.536Z,28.36
2023-05-20T10:39:12.517Z,28.36
2023-05-20T10:40:12.683Z,28.38
2023-05-20T10:41:12.614Z,28.38
2023-05-20T10:42:12.651Z,28.40
2023-05-20T10:43:12.721Z,28.38
2023-05-20T10:44:12.720Z,28.40
2023-05-20T10:45:12.744Z,28.39
2023-05-20T10:46:26.366Z,28.42
2023-05-20T10:48:12.807Z,28.40
2023-05-20T10:49:12.951Z,28.42
2023-05-20T10:50:12.739Z,28.42
2023-05-20T10:51:12.765Z,28.42
2023-05-20T10:52:12.719Z,28.44
2023-05-20T10:53:18.828Z,28.42
2023-05-20T10:54:13.751Z,28.44
2023-05-20T10:55:12.715Z,28.44
2023-05-20T10:56:12.737Z,28.44
2023-05-20T10:57:12.746Z,28.47
2023-05-20T10:58:12.751Z,28.46
2023-05-20T10:59:12.744Z,28.44
2023-05-20T11:00:12.725Z,28.46
2023-05-20T11:01:12.760Z,28.46
2023-05-20T11:02:12.711Z,28.46
2023-05-20T11:03:12.734Z,28.46
2023-05-20T11:04:12.806Z,28.47
2023-05-20T11:05:12.660Z,28.47
2023-05-20T11:06:12.672Z,28.47
2023-05-20T11:07:12.678Z,28.46
2023-05-20T11:08:24.579Z,28.49
2023-05-20T11:09:13.676Z,28.50
2023-05-20T11:10:12.661Z,28.49
2023-05-20T11:11:12.708Z,28.49
2023-05-20T11:12:12.657Z,28.47
2023-05-20T11:13:12.689Z,28.47
2023-05-20T11:14:12.670Z,28.52
2023-05-20T11:15:12.634Z,28.49
2023-05-20T11:16:12.641Z,28.49
2023-05-20T11:17:12.743Z,28.52
2023-05-20T11:18:12.717Z,28.52
2023-05-20T11:19:12.607Z,28.52
2023-05-20T11:20:12.598Z,28.53
2023-05-20T11:21:12.576Z,28.52
2023-05-20T11:22:12.579Z,28.52
2023-05-20T11:23:13.469Z,28.53
2023-05-20T11:24:12.565Z,28.54
2023-05-20T11:25:12.560Z,28.56
2023-05-20T11:26:12.550Z,28.54
2023-05-20T11:27:12.572Z,28.56
2023-05-20T11:28:12.589Z,28.56
2023-05-20T11:29:12.636Z,28.57
2023-05-20T11:30:12.629Z,28.56
2023-05-20T11:31:12.685Z,28.59
2023-05-20T11:32:12.720Z,28.60
2023-05-20T11:33:12.825Z,28.57
2023-05-20T11:34:12.721Z,28.59
2023-05-20T11:35:12.758Z,28.59
2023-05-20T11:36:23.910Z,28.59
2023-05-20T11:37:13.775Z,28.59
2023-05-20T11:38:12.752Z,28.60
2023-05-20T11:39:12.795Z,28.63
2023-05-20T11:40:12.765Z,28.60
2023-05-20T11:41:12.731Z,28.61
2023-05-20T11:42:12.740Z,28.63
2023-05-20T11:43:12.721Z,28.63
2023-05-20T11:44:12.721Z,28.64
2023-05-20T11:45:12.709Z,28.61
2023-05-20T11:46:12.728Z,28.66
2023-05-20T11:47:12.728Z,28.67
2023-05-20T11:48:12.816Z,28.67
2023-05-20T11:49:12.691Z,28.66
2023-05-20T11:50:12.754Z,28.66
2023-05-20T11:51:12.690Z,28.69
2023-05-20T11:52:12.706Z,28.67
2023-05-20T11:53:12.641Z,28.69
2023-05-20T11:54:12.651Z,28.69
2023-05-20T11:55:12.619Z,28.69
2023-05-20T11:56:12.650Z,28.69
2023-05-20T11:57:12.633Z,28.70
2023-05-20T11:58:12.722Z,28.71
2023-05-20T11:59:12.702Z,28.71
2023-05-20T12:00:12.736Z,28.74
2023-05-20T12:01:21.568Z,28.73
2023-05-20T12:02:15.419Z,28.74
2023-05-20T12:03:12.735Z,28.73
2023-05-20T12:04:12.833Z,28.74
2023-05-20T12:05:12.707Z,28.75
2023-05-20T12:06:12.711Z,28.74
2023-05-20T12:07:12.738Z,28.73
2023-05-20T12:08:12.681Z,28.75
2023-05-20T12:09:12.690Z,28.75
2023-05-20T12:10:12.684Z,28.77
2023-05-20T12:11:12.671Z,28.78
2023-05-20T12:12:12.664Z,28.78
2023-05-20T12:13:12.636Z,28.77
2023-05-20T12:14:12.668Z,28.78
2023-05-20T12:15:12.670Z,28.80
2023-05-20T12:16:12.697Z,28.81
2023-05-20T12:17:12.641Z,28.81
2023-05-20T12:18:12.726Z,28.81
2023-05-20T12:19:12.738Z,28.80
2023-05-20T12:20:12.612Z,28.80
2023-05-20T12:21:12.636Z,28.81
2023-05-20T12:22:12.623Z,28.81
2023-05-20T12:23:12.580Z,28.82
2023-05-20T12:24:12.596Z,28.82
2023-05-20T12:25:12.575Z,28.84
2023-05-20T12:26:12.546Z,28.86
2023-05-20T12:27:12.526Z,28.86
2023-05-20T12:28:12.532Z,28.86
2023-05-20T12:29:12.508Z,28.87
2023-05-20T12:30:12.561Z,28.87
2023-05-20T12:31:12.592Z,28.84
2023-05-20T12:32:12.623Z,28.88
2023-05-20T12:33:12.502Z,28.87
2023-05-20T12:34:12.485Z,28.88
2023-05-20T12:35:12.495Z,28.87
2023-05-20T12:36:12.520Z,28.90
2023-05-20T12:37:12.508Z,28.88
2023-05-20T12:38:12.469Z,28.91
2023-05-20T12:39:12.500Z,28.91
2023-05-20T12:40:12.449Z,28.94
2023-05-20T12:41:12.495Z,28.91
2023-05-20T12:42:12.478Z,28.91
2023-05-20T12:43:12.460Z,28.93
2023-05-20T12:44:12.453Z,28.91
2023-05-20T12:45:12.467Z,28.93
2023-05-20T12:46:12.474Z,28.94
2023-05-20T12:47:12.468Z,28.91
2023-05-20T12:48:12.515Z,28.95
2023-05-20T12:49:12.412Z,28.93
2023-05-20T12:50:12.385Z,28.94
2023-05-20T12:51:12.379Z,28.97
2023-05-20T12:52:21.922Z,28.97
2023-05-20T12:53:13.431Z,28.97
2023-05-20T12:54:12.371Z,28.99
2023-05-20T12:55:12.387Z,28.97